Terminal Aerodrome Forecast
Issued by NWS

Home | Current Version | Previous Version | Text Only | Print | Product List | Glossary On
Versions: 1 2 3 4 5 6 7 8 9 10 11 12
077
FTUS46 KSEW 230535
TAFBFI
TAF
KBFI 230535Z 2306/2406 20012G16KT P6SM FEW035 SCT250
     FM230900 17006KT P6SM SCT025 BKN100
      TEMPO 2310/2314 BKN025 OVC045
     FM231900 16007KT P6SM SCT040 BKN060 OVC150
     FM240300 11005KT P6SM -RA SCT030 OVC040=

USA.gov is the U.S. government's official web portal to all federal, state and local government web resources and services.